Time;durP1;ratioP1;P1;durP2;ratioP2;P2;SDS_P1;SDS_P2;PMS_P1;PMS_P2;Temp;Humidity;BMP_temperature;BMP_pressure;BME280_temperature;BME280_humidity;BME280_pressure;Samples;Min_cycle;Max_cycle;Signal;HPM_P1;HPM_P2
2022/07/03 00:01:59;;;;;;;4.15;1.10;;;;;;;17.90;90.63;100715.88;8310499;28;20566;-65
2022/07/03 00:05:59;;;;;;;6.65;2.22;;;;;;;17.91;90.87;100706.66;8306827;28;20056;-65
2022/07/03 00:10:00;;;;;;;5.43;1.80;;;;;;;18.23;89.14;100714.59;8311432;28;20514;-65
2022/07/03 00:14:00;;;;;;;4.93;1.48;;;;;;;17.92;91.70;100711.09;8305845;28;20041;-65
2022/07/03 00:18:00;;;;;;;5.43;1.10;;;;;;;17.96;89.89;100717.88;8310120;28;20543;-65
2022/07/03 00:22:04;;;;;;;10.27;1.13;;;;;;;17.89;88.42;100722.41;8310820;28;20576;-65
2022/07/03 00:26:05;;;;;;;6.85;1.80;;;;;;;17.74;89.94;100723.34;8322766;28;20926;-65
2022/07/03 00:30:07;;;;;;;4.38;1.67;;;;;;;17.69;90.89;100726.66;8315617;28;20049;-65
2022/07/03 00:34:11;;;;;;;5.45;1.83;;;;;;;17.60;91.97;100728.56;8310715;28;20083;-65
2022/07/03 00:38:11;;;;;;;2.65;1.77;;;;;;;17.44;94.42;100727.81;8311783;28;20056;-65
2022/07/03 00:42:12;;;;;;;3.80;2.10;;;;;;;17.16;96.46;100723.84;8304703;28;20091;-65
2022/07/03 00:46:13;;;;;;;4.07;2.05;;;;;;;17.19;97.92;100721.63;8312836;28;20065;-65
2022/07/03 00:50:14;;;;;;;5.13;2.58;;;;;;;16.71;100.00;100723.69;8312520;28;20100;-65
2022/07/03 00:54:19;;;;;;;6.28;2.13;;;;;;;16.66;100.00;100705.09;8308607;28;20115;-65
2022/07/03 00:58:20;;;;;;;5.60;2.28;;;;;;;16.91;98.69;100711.31;8314116;28;20517;-65
2022/07/03 01:02:45;;;;;;;6.95;2.72;;;;;;;16.89;98.84;100691.50;8308661;28;20522;-65
2022/07/03 01:06:52;;;;;;;5.00;2.33;;;;;;;17.22;96.62;100698.53;8306313;28;20064;-65
2022/07/03 01:11:27;;;;;;;4.13;2.20;;;;;;;16.96;98.65;100687.06;8308275;28;20052;-65
2022/07/03 01:15:39;;;;;;;7.13;2.20;;;;;;;16.89;98.47;100683.31;8312250;28;20045;-65
2022/07/03 01:19:45;;;;;;;5.25;2.15;;;;;;;16.95;98.03;100682.59;8306495;28;20095;-65
2022/07/03 01:24:07;;;;;;;6.65;2.70;;;;;;;16.58;100.00;100687.88;8309226;28;20413;-65
2022/07/03 01:28:12;;;;;;;3.92;2.42;;;;;;;16.68;100.00;100692.09;8303994;28;20044;-65
2022/07/03 01:32:14;;;;;;;5.32;2.55;;;;;;;16.63;100.00;100693.66;8300456;28;20638;-65
2022/07/03 01:36:16;;;;;;;6.30;2.33;;;;;;;16.75;99.98;100689.53;8311046;28;20059;-65
2022/07/03 01:40:17;;;;;;;6.32;2.90;;;;;;;16.98;98.14;100676.78;8311804;28;20042;-65
2022/07/03 01:44:19;;;;;;;6.28;2.83;;;;;;;16.92;97.21;100677.50;8306426;28;20053;-65
2022/07/03 01:48:21;;;;;;;3.00;2.22;;;;;;;16.84;98.01;100680.28;8311034;28;20049;-65
2022/07/03 01:52:22;;;;;;;5.25;2.60;;;;;;;16.90;97.91;100682.31;8305845;28;20059;-65
2022/07/03 01:56:23;;;;;;;2.55;2.00;;;;;;;16.78;98.20;100686.44;8304530;28;20057;-65
2022/07/03 02:00:23;;;;;;;4.82;1.92;;;;;;;16.70;98.17;100681.00;8302013;28;20057;-65
2022/07/03 02:04:28;;;;;;;10.93;2.75;;;;;;;16.71;97.78;100680.84;8327861;28;20129;-65
2022/07/03 02:08:37;;;;;;;4.63;2.20;;;;;;;16.66;98.49;100687.84;8311125;28;20050;-65
2022/07/03 02:12:47;;;;;;;2.63;2.10;;;;;;;16.58;98.76;100676.94;8296486;28;20041;-65
2022/07/03 02:17:04;;;;;;;3.30;2.28;;;;;;;16.55;99.09;100669.09;8311971;28;20049;-65
2022/07/03 02:21:20;;;;;;;2.85;2.00;;;;;;;16.55;99.71;100669.09;8299630;28;20452;-64
2022/07/03 02:25:23;;;;;;;5.07;1.88;;;;;;;16.44;100.00;100669.50;8311053;28;20561;-64
2022/07/03 02:29:31;;;;;;;2.90;2.10;;;;;;;16.37;100.00;100677.47;8309396;28;20052;-64
2022/07/03 02:33:35;;;;;;;6.40;2.13;;;;;;;16.31;100.00;100667.25;8313338;28;20438;-64
2022/07/03 02:37:45;;;;;;;4.97;2.50;;;;;;;16.35;100.00;100679.53;8310454;28;20128;-64
2022/07/03 02:41:52;;;;;;;3.10;1.88;;;;;;;16.19;100.00;100673.28;8311799;28;20041;-64
2022/07/03 02:47:04;;;;;;;2.60;1.75;;;;;;;15.99;100.00;100672.78;8309968;28;20099;-64
2022/07/03 02:51:01;;;;;;;3.05;2.25;;;;;;;15.87;100.00;100668.69;8327493;28;20576;-65
2022/07/03 02:55:10;;;;;;;4.57;2.38;;;;;;;15.93;100.00;100675.31;8320276;28;20037;-65
2022/07/03 02:59:38;;;;;;;2.78;1.98;;;;;;;15.87;100.00;100673.28;8317529;28;20451;-64
2022/07/03 03:03:50;;;;;;;4.72;2.22;;;;;;;16.02;100.00;100680.63;8304047;28;20047;-64
2022/07/03 03:08:15;;;;;;;2.10;1.90;;;;;;;16.00;100.00;100674.47;8312562;28;20046;-64
2022/07/03 03:12:27;;;;;;;4.93;1.77;;;;;;;15.96;100.00;100674.97;8314529;28;20056;-64
2022/07/03 03:16:28;;;;;;;3.60;2.40;;;;;;;15.83;100.00;100677.38;8315408;28;20557;-64
2022/07/03 03:20:31;;;;;;;4.60;2.35;;;;;;;15.82;100.00;100678.41;8316610;28;20512;-64
2022/07/03 03:24:33;;;;;;;2.73;1.90;;;;;;;15.81;100.00;100679.41;8323311;28;20045;-64
2022/07/03 03:28:34;;;;;;;4.35;2.30;;;;;;;15.81;100.00;100687.59;8317230;28;20432;-64
2022/07/03 03:32:36;;;;;;;3.88;1.90;;;;;;;15.81;100.00;100680.28;8313092;28;20068;-65
2022/07/03 03:36:37;;;;;;;5.47;2.65;;;;;;;15.61;100.00;100685.19;8316624;28;20052;-64
2022/07/03 03:40:37;;;;;;;3.22;2.40;;;;;;;15.56;100.00;100682.13;8313767;28;20494;-64
2022/07/03 03:44:38;;;;;;;6.43;2.00;;;;;;;15.69;100.00;100693.41;8310051;28;20073;-64
2022/07/03 03:48:38;;;;;;;4.25;2.47;;;;;;;15.65;100.00;100688.44;8313421;28;20414;-64
2022/07/03 03:52:39;;;;;;;3.75;2.05;;;;;;;15.66;100.00;100699.19;8309084;28;20453;-64
2022/07/03 03:56:40;;;;;;;4.50;2.33;;;;;;;15.62;100.00;100692.34;8315943;28;20159;-64
2022/07/03 04:00:40;;;;;;;5.03;2.03;;;;;;;15.55;100.00;100694.06;8311491;28;20044;-64
2022/07/03 04:04:42;;;;;;;6.65;2.00;;;;;;;15.61;100.00;100696.09;8313399;28;20064;-64
2022/07/03 04:08:42;;;;;;;3.58;2.00;;;;;;;15.52;100.00;100691.66;8311411;28;20530;-64
2022/07/03 04:12:42;;;;;;;4.77;2.13;;;;;;;15.57;100.00;100699.34;8314846;28;20195;-64
2022/07/03 04:16:43;;;;;;;5.33;2.43;;;;;;;15.89;100.00;100703.97;8320408;28;20305;-64
2022/07/03 04:20:43;;;;;;;8.38;1.92;;;;;;;16.02;100.00;100704.28;8330281;28;20649;-64
2022/07/03 04:24:44;;;;;;;3.05;1.60;;;;;;;15.80;100.00;100715.88;8310194;28;20406;-64
2022/07/03 04:28:45;;;;;;;5.82;2.00;;;;;;;15.77;100.00;100712.47;8312522;28;20043;-64
2022/07/03 04:32:46;;;;;;;5.00;2.03;;;;;;;15.80;100.00;100718.63;8313033;28;20430;-64
2022/07/03 04:36:46;;;;;;;6.43;1.98;;;;;;;15.77;100.00;100721.69;8311614;28;20041;-65
2022/07/03 04:40:46;;;;;;;4.87;2.00;;;;;;;15.92;100.00;100741.81;8304705;28;20041;-65
2022/07/03 04:44:47;;;;;;;9.00;2.10;;;;;;;15.74;100.00;100728.31;8311919;28;20787;-65
2022/07/03 04:48:47;;;;;;;4.53;1.98;;;;;;;16.01;100.00;100732.59;8311947;28;20091;-65
2022/07/03 04:52:48;;;;;;;12.40;2.37;;;;;;;16.31;100.00;100745.56;8314203;28;20045;-65
2022/07/03 04:56:48;;;;;;;8.50;1.70;;;;;;;16.56;100.00;100760.91;8315913;28;20334;-65
2022/07/03 05:00:48;;;;;;;4.75;1.85;;;;;;;16.80;99.81;100744.47;8313803;28;20299;-64
2022/07/03 05:04:49;;;;;;;3.38;1.58;;;;;;;17.23;96.33;100749.44;8310979;28;20044;-64
2022/07/03 05:08:49;;;;;;;10.35;2.38;;;;;;;17.69;92.63;100737.59;8314338;28;20056;-64
2022/07/03 05:12:50;;;;;;;5.75;1.67;;;;;;;17.90;95.74;100739.69;8310637;28;20441;-64
2022/07/03 05:16:50;;;;;;;6.07;1.92;;;;;;;17.90;93.35;100743.25;8309997;28;20449;-64
2022/07/03 05:20:51;;;;;;;7.70;1.98;;;;;;;18.32;89.28;100751.81;8311899;28;20132;-64
2022/07/03 05:24:51;;;;;;;7.88;2.20;;;;;;;18.82;85.16;100759.41;8318622;28;20064;-64
2022/07/03 05:28:51;;;;;;;2.83;1.65;;;;;;;19.21;85.42;100760.81;8317323;28;20148;-64
2022/07/03 05:32:52;;;;;;;6.57;1.63;;;;;;;19.44;84.63;100766.19;8307322;28;20072;-64
2022/07/03 05:36:52;;;;;;;9.48;1.70;;;;;;;19.75;82.64;100765.94;8304325;28;20053;-64
2022/07/03 05:40:53;;;;;;;6.80;1.67;;;;;;;19.88;80.56;100763.34;8308649;28;20158;-64
2022/07/03 05:44:54;;;;;;;3.72;1.70;;;;;;;19.90;79.99;100761.25;8309424;28;20736;-64
2022/07/03 05:48:54;;;;;;;3.20;2.00;;;;;;;20.14;80.02;100763.66;8306419;28;20507;-64
2022/07/03 05:52:55;;;;;;;6.43;1.80;;;;;;;20.28;78.66;100760.00;8304413;28;20041;-64
2022/07/03 05:56:55;;;;;;;5.78;2.38;;;;;;;20.34;77.72;100767.44;8303966;28;20045;-65
2022/07/03 06:00:55;;;;;;;5.25;1.90;;;;;;;20.52;77.35;100767.81;8315405;28;20037;-65
2022/07/03 06:04:56;;;;;;;5.13;2.38;;;;;;;20.71;77.33;100773.44;8314566;28;20120;-65
2022/07/03 06:08:56;;;;;;;5.30;2.33;;;;;;;20.83;76.94;100777.34;8303440;28;20041;-63
2022/07/03 06:12:57;;;;;;;4.60;2.20;;;;;;;20.95;75.43;100774.94;8314286;28;20083;-65
2022/07/03 06:16:57;;;;;;;8.27;2.15;;;;;;;21.32;75.43;100777.28;8314740;28;20272;-65
2022/07/03 06:20:58;;;;;;;6.95;2.08;;;;;;;21.13;74.90;100778.88;8314889;28;20100;-64
2022/07/03 06:24:58;;;;;;;5.82;2.40;;;;;;;21.22;73.46;100782.28;8313272;28;20034;-64
2022/07/03 06:28:58;;;;;;;8.88;2.35;;;;;;;21.56;73.28;100778.66;8310276;28;20539;-64
2022/07/03 06:32:59;;;;;;;6.07;2.30;;;;;;;21.66;72.89;100791.00;8341228;28;20115;-64
2022/07/03 06:36:59;;;;;;;8.18;3.13;;;;;;;21.64;71.99;100798.59;8316337;28;20281;-64
2022/07/03 06:41:00;;;;;;;5.53;2.37;;;;;;;21.81;70.89;100799.97;8320884;28;20329;-64
2022/07/03 06:45:00;;;;;;;8.00;2.22;;;;;;;21.97;70.26;100798.75;8319457;28;20375;-64
2022/07/03 06:49:00;;;;;;;6.07;2.30;;;;;;;22.27;69.88;100792.69;8312656;28;20044;-64
2022/07/03 06:53:01;;;;;;;9.53;2.63;;;;;;;22.47;70.54;100785.28;8306334;28;20435;-64
2022/07/03 06:57:01;;;;;;;3.63;1.85;;;;;;;22.25;69.93;100786.53;8317690;28;21150;-64
2022/07/03 07:01:02;;;;;;;10.27;1.98;;;;;;;22.14;67.86;100781.63;8319965;28;20041;-64
2022/07/03 07:05:03;;;;;;;5.55;2.20;;;;;;;22.13;70.45;100782.69;8313653;28;20379;-64
2022/07/03 07:09:04;;;;;;;4.63;1.55;;;;;;;22.49;70.31;100783.16;8311289;28;20061;-64
2022/07/03 07:13:04;;;;;;;5.15;1.25;;;;;;;22.75;68.42;100783.19;8316506;28;20103;-64
2022/07/03 07:17:05;;;;;;;3.53;1.30;;;;;;;22.59;66.86;100778.09;8308789;28;20046;-64
2022/07/03 07:21:05;;;;;;;6.20;1.30;;;;;;;22.58;66.54;100781.94;8313607;28;20789;-65
2022/07/03 07:25:06;;;;;;;4.25;1.23;;;;;;;22.36;66.04;100774.91;8306313;28;20045;-65
2022/07/03 07:29:07;;;;;;;6.30;1.58;;;;;;;22.44;66.76;100780.19;8318360;28;20088;-65
2022/07/03 07:33:07;;;;;;;4.88;1.10;;;;;;;22.98;66.49;100788.25;8313303;28;20045;-65
2022/07/03 07:37:08;;;;;;;3.92;1.13;;;;;;;23.39;64.35;100796.28;8316531;28;20045;-65
2022/07/03 07:41:09;;;;;;;4.13;1.02;;;;;;;23.31;62.90;100793.75;8314132;28;20045;-65
2022/07/03 07:45:11;;;;;;;6.05;1.50;;;;;;;23.53;62.58;100797.91;8307869;28;20069;-64
2022/07/03 07:49:11;;;;;;;7.53;1.10;;;;;;;23.15;63.04;100790.34;8304181;28;20083;-64
2022/07/03 07:53:11;;;;;;;5.30;0.93;;;;;;;23.69;66.11;100786.41;8307052;28;20045;-63
2022/07/03 07:57:12;;;;;;;6.00;1.88;;;;;;;23.99;64.89;100787.53;8312836;28;20311;-64
2022/07/03 08:05:37;;;;;;;3.80;1.45;;;;;;;23.73;63.38;100787.66;8315811;28;20350;-64
2022/07/03 08:09:37;;;;;;;7.68;2.00;;;;;;;23.35;63.96;100795.84;8301075;28;20045;-64
2022/07/03 08:13:37;;;;;;;8.90;1.70;;;;;;;23.41;63.09;100794.13;8313785;28;20041;-64
2022/07/03 08:17:38;;;;;;;6.33;1.70;;;;;;;23.81;63.53;100790.16;8316874;28;20284;-64
2022/07/03 08:21:38;;;;;;;5.03;2.13;;;;;;;23.94;61.95;100787.34;8317993;28;20815;-64
2022/07/03 08:25:38;;;;;;;4.20;1.43;;;;;;;23.75;62.71;100797.41;8324282;28;20299;-63
2022/07/03 08:29:39;;;;;;;4.03;2.00;;;;;;;23.68;62.19;100795.75;8317773;28;20331;-64
2022/07/03 08:33:43;;;;;;;3.50;1.80;;;;;;;24.11;63.91;100792.16;8316618;28;20776;-64
2022/07/03 08:37:46;;;;;;;8.02;2.10;;;;;;;24.06;61.95;100788.38;8324282;28;20045;-64
2022/07/03 08:41:48;;;;;;;8.50;1.90;;;;;;;24.45;62.00;100790.84;8319059;28;20049;-64
2022/07/03 08:45:48;;;;;;;6.53;1.73;;;;;;;24.30;61.75;100791.19;8327135;28;20083;-64
2022/07/03 08:49:49;;;;;;;5.28;1.70;;;;;;;24.23;61.47;100792.28;8335822;28;20038;-64
2022/07/03 08:53:52;;;;;;;4.53;1.60;;;;;;;24.19;61.35;100788.28;8339547;28;20044;-64
2022/07/03 08:57:55;;;;;;;4.32;1.85;;;;;;;24.27;61.92;100788.00;8335029;28;20084;-64
2022/07/03 09:01:56;;;;;;;4.53;1.83;;;;;;;24.37;61.25;100786.44;8328785;28;20405;-64
2022/07/03 09:05:58;;;;;;;5.50;1.83;;;;;;;24.66;62.17;100793.28;8340539;28;20034;-64
2022/07/03 09:09:59;;;;;;;4.07;1.52;;;;;;;24.63;60.05;100796.47;8341958;28;20037;-64
2022/07/03 09:13:59;;;;;;;5.68;1.60;;;;;;;25.01;60.70;100791.72;8342158;28;20041;-64
2022/07/03 09:18:04;;;;;;;6.75;1.80;;;;;;;24.69;59.99;100788.16;8339706;28;20116;-64
2022/07/03 09:22:16;;;;;;;2.72;1.52;;;;;;;25.12;61.02;100785.41;8337228;28;20029;-64
2022/07/03 09:26:19;;;;;;;7.68;1.73;;;;;;;24.97;58.51;100782.16;8341049;28;20033;-64
2022/07/03 09:30:19;;;;;;;5.47;1.73;;;;;;;24.74;60.08;100793.00;8328088;28;20091;-64
2022/07/03 09:34:21;;;;;;;4.68;1.42;;;;;;;24.77;59.84;100792.56;8324946;28;20072;-64
2022/07/03 09:38:22;;;;;;;2.72;1.25;;;;;;;25.06;59.70;100786.31;8328986;28;20041;-64
2022/07/03 09:42:23;;;;;;;4.57;1.45;;;;;;;25.23;59.31;100790.19;8340116;28;20109;-64
2022/07/03 09:46:23;;;;;;;5.23;1.43;;;;;;;24.94;59.41;100777.06;8339781;28;20044;-64
2022/07/03 09:50:23;;;;;;;6.93;1.50;;;;;;;25.71;60.06;100782.81;8336364;28;20359;-64
2022/07/03 09:54:24;;;;;;;5.18;1.88;;;;;;;25.49;57.71;100775.25;8340931;28;20374;-64
2022/07/03 09:58:25;;;;;;;5.82;1.52;;;;;;;25.33;60.03;100775.84;8329761;28;20048;-64
2022/07/03 10:02:26;;;;;;;5.43;1.40;;;;;;;25.65;57.39;100775.47;8345334;28;20123;-64
2022/07/03 10:06:26;;;;;;;3.90;1.20;;;;;;;27.29;56.65;100765.44;8332607;28;20677;-64
2022/07/03 10:10:30;;;;;;;5.60;1.35;;;;;;;28.52;53.53;100775.81;8340191;28;20286;-64
2022/07/03 10:14:32;;;;;;;2.00;1.05;;;;;;;29.35;51.49;100782.19;8336637;28;20494;-64
2022/07/03 10:18:37;;;;;;;6.57;1.63;;;;;;;29.71;48.77;100780.75;8339398;28;20037;-64
2022/07/03 10:22:39;;;;;;;5.50;1.45;;;;;;;29.78;49.18;100781.41;8340303;28;20028;-64
2022/07/03 10:26:40;;;;;;;7.85;1.35;;;;;;;31.06;48.44;100778.56;8321129;28;20038;-64
2022/07/03 10:30:44;;;;;;;5.68;1.08;;;;;;;31.63;46.78;100773.91;8323904;28;20040;-64
2022/07/03 10:34:45;;;;;;;3.65;1.20;;;;;;;31.71;46.82;100773.41;8337423;28;20079;-64
2022/07/03 10:38:48;;;;;;;3.72;1.40;;;;;;;31.38;46.27;100766.22;8340050;28;20091;-64
2022/07/03 10:47:39;;;;;;;3.95;1.00;;;;;;;28.64;50.34;100771.00;8336657;28;20501;-64
2022/07/03 10:51:58;;;;;;;3.40;1.10;;;;;;;27.02;54.41;100773.41;8320385;28;20091;-63
2022/07/03 10:56:04;;;;;;;3.60;1.40;;;;;;;27.85;53.85;100768.31;8339658;28;20045;-63
2022/07/03 11:00:08;;;;;;;1.63;1.20;;;;;;;29.45;50.17;100768.38;8334027;28;20037;-63
2022/07/03 11:04:08;;;;;;;5.28;1.00;;;;;;;30.39;49.04;100767.91;8339087;28;20033;-63
2022/07/03 11:08:09;;;;;;;5.30;1.13;;;;;;;31.24;48.33;100756.63;8341020;28;20044;-63
2022/07/03 11:12:10;;;;;;;4.88;1.02;;;;;;;31.82;46.31;100761.16;8328804;28;20033;-63
2022/07/03 11:16:23;;;;;;;5.57;0.87;;;;;;;31.91;47.49;100749.16;8327819;28;20041;-63
2022/07/03 11:20:26;;;;;;;5.00;1.25;;;;;;;32.15;45.20;100755.09;8344575;28;20264;-64
2022/07/03 11:24:38;;;;;;;3.22;1.30;;;;;;;31.40;46.69;100740.78;8337295;28;20124;-64
2022/07/03 11:28:44;;;;;;;4.93;1.08;;;;;;;31.26;46.12;100745.16;8298367;28;20070;-64
2022/07/03 11:32:49;;;;;;;4.22;0.80;;;;;;;32.22;46.17;100745.31;8325394;28;20515;-64
2022/07/03 11:36:50;;;;;;;3.53;0.80;;;;;;;33.28;44.19;100748.16;8327725;28;20517;-64
2022/07/03 11:40:51;;;;;;;3.88;1.00;;;;;;;32.70;42.86;100740.34;8326195;28;20056;-64
2022/07/03 11:44:52;;;;;;;3.97;0.80;;;;;;;31.64;46.03;100744.81;8327185;28;20057;-64
2022/07/03 11:49:09;;;;;;;1.77;0.63;;;;;;;31.25;46.89;100743.50;8358621;28;20030;-65
2022/07/03 11:53:29;;;;;;;2.25;0.88;;;;;;;29.85;47.87;100743.03;8323840;28;20041;-63
2022/07/03 11:57:30;;;;;;;2.20;0.70;;;;;;;28.07;51.57;100744.31;8330705;28;20033;-65
2022/07/03 12:01:36;;;;;;;2.33;1.00;;;;;;;29.52;51.88;100751.50;8323322;28;20478;-65
2022/07/03 12:05:36;;;;;;;1.67;0.90;;;;;;;29.87;48.31;100741.66;8320538;28;20029;-63
2022/07/03 12:09:36;;;;;;;3.45;0.80;;;;;;;28.05;51.68;100741.78;8326705;28;20036;-64
2022/07/03 12:13:37;;;;;;;2.63;0.80;;;;;;;27.07;53.29;100736.59;8327463;28;20033;-63
2022/07/03 12:17:37;;;;;;;1.15;0.70;;;;;;;26.60;54.99;100736.50;8326270;28;20116;-64
2022/07/03 12:21:39;;;;;;;3.10;0.70;;;;;;;26.48;56.92;100744.00;8326606;28;20045;-65
2022/07/03 12:25:40;;;;;;;8.43;0.80;;;;;;;26.37;56.65;100744.81;8327172;28;20083;-64
2022/07/03 12:29:41;;;;;;;1.88;0.80;;;;;;;26.41;57.48;100742.41;8324998;28;20061;-64
2022/07/03 12:33:43;;;;;;;5.03;1.10;;;;;;;26.96;56.49;100734.66;8322860;28;20045;-64
2022/07/03 12:37:45;;;;;;;3.63;1.05;;;;;;;26.83;56.83;100734.91;8326091;28;20042;-64
2022/07/03 12:41:45;;;;;;;3.17;0.60;;;;;;;26.61;55.05;100727.13;8324552;28;20083;-64
2022/07/03 12:45:46;;;;;;;1.33;0.50;;;;;;;27.34;55.41;100732.22;8326357;28;20033;-64
2022/07/03 12:49:46;;;;;;;1.83;0.60;;;;;;;27.26;54.52;100724.28;8325640;28;20271;-64
2022/07/03 12:53:54;;;;;;;4.83;0.83;;;;;;;27.12;54.44;100728.34;8357342;28;20287;-64
2022/07/03 12:59:16;;;;;;;3.10;0.85;;;;;;;27.07;54.08;100725.47;8324000;28;20260;-64
2022/07/03 13:02:38;;;;;;;2.75;0.82;;;;;;;27.04;56.06;100737.06;8318120;28;20041;-64
2022/07/03 13:06:38;;;;;;;4.57;0.85;;;;;;;27.02;56.03;100740.09;8325205;28;20033;-64
2022/07/03 13:10:38;;;;;;;5.67;1.00;;;;;;;26.77;56.00;100748.63;8325247;28;20491;-64
2022/07/03 13:14:39;;;;;;;6.53;0.70;;;;;;;26.43;55.70;100741.09;8324295;28;20033;-64
2022/07/03 13:18:59;;;;;;;2.87;0.73;;;;;;;26.21;56.55;100737.19;8324238;28;20347;-64
2022/07/03 13:23:02;;;;;;;4.82;0.90;;;;;;;26.36;59.55;100740.34;8325727;28;20041;-64
2022/07/03 13:27:02;;;;;;;7.57;0.75;;;;;;;26.22;56.34;100738.00;8325403;28;20038;-64
2022/07/03 13:31:04;;;;;;;2.53;0.60;;;;;;;26.04;57.56;100740.88;8323358;28;20120;-64
2022/07/03 13:35:05;;;;;;;4.43;0.80;;;;;;;26.13;57.48;100740.28;8324642;28;20057;-64
2022/07/03 13:39:08;;;;;;;5.97;0.70;;;;;;;25.68;57.79;100741.75;8320116;28;20037;-64
2022/07/03 13:43:08;;;;;;;6.05;1.60;;;;;;;25.36;59.09;100747.69;8323714;28;20030;-64
2022/07/03 13:47:09;;;;;;;4.33;2.23;;;;;;;25.43;58.87;100727.16;8324594;28;20034;-64
2022/07/03 13:51:10;;;;;;;12.65;8.63;;;;;;;25.47;58.23;100736.72;8320989;28;20776;-64
2022/07/03 13:55:11;;;;;;;15.02;9.55;;;;;;;25.86;58.60;100738.94;8323226;28;20506;-64
2022/07/03 13:59:12;;;;;;;6.38;3.92;;;;;;;26.13;59.80;100729.19;8339144;28;20131;-64
2022/07/03 14:03:12;;;;;;;4.32;0.60;;;;;;;26.76;55.97;100730.31;8324544;28;20029;-64
2022/07/03 14:07:12;;;;;;;2.90;0.60;;;;;;;27.19;57.10;100723.50;8323801;28;20509;-64
2022/07/03 14:11:14;;;;;;;3.20;0.80;;;;;;;27.15;56.51;100734.28;8323231;28;20489;-64
2022/07/03 14:15:15;;;;;;;1.88;0.82;;;;;;;26.77;56.10;100726.44;8323300;28;20152;-64
2022/07/03 14:19:15;;;;;;;5.03;0.73;;;;;;;26.87;56.40;100731.41;8337552;28;20063;-63
2022/07/03 14:23:16;;;;;;;5.10;0.77;;;;;;;26.95;55.85;100727.41;8324162;28;20037;-63
2022/07/03 14:32:37;;;;;;;3.58;0.70;;;;;;;26.64;57.39;100737.78;8316322;28;20287;-63
2022/07/03 14:35:57;;;;;;;7.22;0.70;;;;;;;26.45;58.75;100738.94;8329050;28;20045;-64
2022/07/03 14:39:57;;;;;;;2.08;0.50;;;;;;;26.43;57.67;100729.13;8329111;28;20091;-64
2022/07/03 14:43:57;;;;;;;1.37;0.70;;;;;;;26.41;56.82;100737.69;8329183;28;20059;-64
2022/07/03 14:47:58;;;;;;;4.17;0.80;;;;;;;26.23;56.91;100736.94;8329874;28;20267;-64
2022/07/03 14:52:04;;;;;;;2.23;0.60;;;;;;;26.31;57.77;100742.97;8328617;28;20276;-64
2022/07/03 14:56:06;;;;;;;1.95;0.80;;;;;;;26.27;56.54;100741.78;8328582;28;20276;-64
2022/07/03 15:00:09;;;;;;;1.83;0.80;;;;;;;26.03;56.62;100734.47;8328829;28;20026;-64
2022/07/03 15:04:19;;;;;;;2.55;0.77;;;;;;;25.87;57.31;100746.19;8329103;28;20040;-65
2022/07/03 15:12:45;;;;;;;1.85;0.75;;;;;;;25.39;58.92;100748.09;8396948;27;20470;-64
2022/07/03 15:16:47;;;;;;;3.30;0.75;;;;;;;25.46;57.61;100732.22;8386754;28;20045;-64
2022/07/03 15:20:50;;;;;;;5.45;0.90;;;;;;;25.41;57.26;100745.94;8385254;28;20071;-64
2022/07/03 15:24:53;;;;;;;3.25;0.80;;;;;;;25.32;58.30;100733.47;8367752;28;20107;-64
2022/07/03 15:28:57;;;;;;;3.97;0.95;;;;;;;25.57;57.55;100728.69;8385027;28;20029;-64
2022/07/03 15:32:57;;;;;;;2.90;0.90;;;;;;;25.59;58.22;100729.31;8385363;28;20040;-64
2022/07/03 15:37:11;;;;;;;4.38;0.90;;;;;;;25.31;58.44;100728.16;8385753;28;20028;-64
2022/07/03 15:41:24;;;;;;;1.50;0.73;;;;;;;25.08;59.54;100734.38;8377751;28;20048;-64
2022/07/03 15:49:42;;;;;;;5.20;1.00;;;;;;;25.10;60.28;100726.69;8296104;28;20462;-63
2022/07/03 15:53:45;;;;;;;3.80;0.98;;;;;;;25.11;58.61;100744.13;8288051;28;20103;-63
2022/07/03 15:58:04;;;;;;;4.55;0.90;;;;;;;25.02;58.85;100735.28;8284189;28;20533;-63
2022/07/03 16:02:12;;;;;;;5.50;1.05;;;;;;;24.94;58.64;100746.63;8288083;28;20072;-63
2022/07/03 16:06:14;;;;;;;1.70;0.80;;;;;;;25.24;58.44;100739.28;8285350;28;20084;-63
2022/07/03 16:10:14;;;;;;;2.47;0.80;;;;;;;25.48;59.81;100741.16;8286581;28;20034;-63
2022/07/03 16:14:17;;;;;;;5.15;0.90;;;;;;;25.61;58.41;100741.00;8316482;28;20038;-64
2022/07/03 16:18:19;;;;;;;3.58;0.70;;;;;;;25.46;56.68;100731.41;8318919;28;20064;-64
2022/07/03 16:22:20;;;;;;;14.05;1.00;;;;;;;25.32;58.23;100739.03;8319214;28;20034;-64
2022/07/03 16:26:21;;;;;;;2.10;0.85;;;;;;;25.35;58.20;100746.88;8317958;28;20072;-64
2022/07/03 16:30:22;;;;;;;5.38;0.70;;;;;;;25.27;57.89;100743.50;8318837;28;20490;-64
2022/07/03 16:34:33;;;;;;;1.05;0.50;;;;;;;25.27;57.52;100749.91;8318855;28;20441;-64
2022/07/03 16:38:38;;;;;;;7.57;0.98;;;;;;;25.18;57.82;100751.28;8318916;28;20034;-64
2022/07/03 16:42:43;;;;;;;3.90;0.80;;;;;;;25.02;58.38;100746.34;8317946;28;20034;-64
2022/07/03 16:46:46;;;;;;;5.55;0.70;;;;;;;25.10;58.50;100742.44;8292634;28;20065;-63
2022/07/03 16:50:51;;;;;;;1.52;0.82;;;;;;;25.16;57.89;100753.44;8288949;28;20064;-64
2022/07/03 16:54:52;;;;;;;1.67;0.60;;;;;;;25.10;56.94;100764.56;8288347;28;20045;-64
2022/07/03 16:58:54;;;;;;;2.60;0.52;;;;;;;25.09;56.81;100758.19;8277921;28;20084;-64
2022/07/03 17:02:56;;;;;;;2.10;0.70;;;;;;;24.94;57.69;100749.41;8269134;28;20065;-64
2022/07/03 17:06:56;;;;;;;2.50;0.50;;;;;;;24.84;57.26;100754.63;8270684;28;20117;-64
2022/07/03 17:10:57;;;;;;;2.80;0.50;;;;;;;24.84;56.43;100760.16;8275015;28;20070;-64
2022/07/03 17:14:57;;;;;;;2.00;0.40;;;;;;;24.74;57.16;100759.81;8274293;28;20052;-65
2022/07/03 17:19:01;;;;;;;3.45;1.05;;;;;;;24.81;56.88;100760.59;8273316;28;20039;-64
2022/07/03 17:23:08;;;;;;;2.47;0.80;;;;;;;24.68;55.46;100760.72;8271441;28;20133;-64
2022/07/03 17:27:19;;;;;;;2.65;1.33;;;;;;;24.60;55.86;100770.13;8276122;28;20046;-64
2022/07/03 17:31:22;;;;;;;2.42;0.50;;;;;;;24.50;56.45;100764.25;8273226;28;20044;-64
2022/07/03 17:35:24;;;;;;;2.47;0.40;;;;;;;24.42;56.76;100777.47;8282967;28;20038;-64
2022/07/03 17:39:28;;;;;;;2.50;0.50;;;;;;;24.37;57.45;100780.09;8282224;28;20507;-64
2022/07/03 17:43:29;;;;;;;4.18;0.63;;;;;;;24.37;56.08;100780.09;8281841;28;20038;-64
2022/07/03 17:47:31;;;;;;;3.25;0.50;;;;;;;24.24;55.61;100782.97;8274995;28;20053;-65
2022/07/03 17:51:32;;;;;;;5.65;0.73;;;;;;;24.34;54.60;100772.25;8282471;28;20441;-64
2022/07/03 17:55:35;;;;;;;3.90;0.57;;;;;;;24.34;55.28;100775.00;8283439;28;20060;-64
2022/07/03 17:59:36;;;;;;;1.75;0.60;;;;;;;24.23;55.28;100772.94;8279323;28;20148;-64
2022/07/03 18:03:37;;;;;;;2.55;0.57;;;;;;;24.13;55.62;100778.13;8282698;28;20050;-64
2022/07/03 18:08:05;;;;;;;2.95;0.50;;;;;;;24.18;55.31;100776.38;8296849;28;20525;-65
2022/07/03 18:12:14;;;;;;;2.13;0.40;;;;;;;24.05;54.65;100770.09;8281163;28;20045;-65
2022/07/03 18:16:16;;;;;;;2.58;0.40;;;;;;;23.88;55.55;100766.94;8278390;28;20076;-65
2022/07/03 18:20:17;;;;;;;2.00;0.50;;;;;;;23.91;55.98;100771.22;8276933;28;20042;-65
2022/07/03 18:24:20;;;;;;;1.70;0.63;;;;;;;23.65;56.44;100774.94;8281147;28;20042;-65
2022/07/03 18:28:22;;;;;;;2.03;0.60;;;;;;;23.52;56.82;100787.94;8273013;28;20421;-65
2022/07/03 18:32:24;;;;;;;1.30;0.40;;;;;;;23.43;57.11;100789.25;8288022;28;20042;-65
2022/07/03 18:36:27;;;;;;;1.80;0.52;;;;;;;23.35;57.03;100793.09;8283856;28;20484;-65
2022/07/03 18:40:28;;;;;;;1.38;0.40;;;;;;;23.30;57.49;100801.19;8283338;28;20494;-65
2022/07/03 18:44:32;;;;;;;2.80;0.40;;;;;;;23.10;58.27;100798.44;8282539;28;20053;-65
2022/07/03 18:48:45;;;;;;;3.30;0.60;;;;;;;22.92;58.85;100801.00;8282541;28;20456;-65
2022/07/03 18:53:14;;;;;;;2.72;0.70;;;;;;;22.74;59.88;100798.03;8284241;28;20548;-65
2022/07/03 18:57:22;;;;;;;1.35;0.60;;;;;;;22.62;60.86;100801.63;8284260;28;20116;-64
2022/07/03 19:01:28;;;;;;;1.42;0.50;;;;;;;22.49;61.45;100810.72;8282321;28;20034;-64
2022/07/03 19:05:44;;;;;;;3.83;0.93;;;;;;;22.40;62.52;100806.47;8278502;28;20100;-64
2022/07/03 19:09:55;;;;;;;4.05;1.95;;;;;;;22.23;63.38;100813.44;8279698;28;20053;-64
2022/07/03 19:14:09;;;;;;;8.75;1.00;;;;;;;22.08;64.36;100821.00;8282021;28;20088;-64